sensor_id;sensor_type;location;lat;lon;timestamp;P1;durP1;ratioP1;P2;durP2;ratioP2
81209;SDS011;70685;52.496;13.420;2023-09-07T00:00:31;6.28;;;5.88;;
81209;SDS011;70685;52.496;13.420;2023-09-07T00:02:57;6.50;;;5.90;;
81209;SDS011;70685;52.496;13.420;2023-09-07T00:05:27;6.40;;;5.78;;
81209;SDS011;70685;52.496;13.420;2023-09-07T00:07:56;6.45;;;5.80;;
81209;SDS011;70685;52.496;13.420;2023-09-07T00:10:25;6.77;;;5.60;;
81209;SDS011;70685;52.496;13.420;2023-09-07T00:12:51;5.97;;;5.45;;
81209;SDS011;70685;52.496;13.420;2023-09-07T00:15:17;7.43;;;6.65;;
81209;SDS011;70685;52.496;13.420;2023-09-07T00:17:44;6.68;;;6.20;;
81209;SDS011;70685;52.496;13.420;2023-09-07T00:20:10;7.43;;;6.88;;
81209;SDS011;70685;52.496;13.420;2023-09-07T00:22:37;7.30;;;6.68;;
81209;SDS011;70685;52.496;13.420;2023-09-07T00:25:07;7.05;;;6.38;;
81209;SDS011;70685;52.496;13.420;2023-09-07T00:27:34;8.13;;;6.13;;
81209;SDS011;70685;52.496;13.420;2023-09-07T00:29:59;7.03;;;6.43;;
81209;SDS011;70685;52.496;13.420;2023-09-07T00:32:29;6.85;;;6.15;;
81209;SDS011;70685;52.496;13.420;2023-09-07T00:34:55;6.47;;;5.90;;
81209;SDS011;70685;52.496;13.420;2023-09-07T00:37:22;8.10;;;6.15;;
81209;SDS011;70685;52.496;13.420;2023-09-07T00:39:48;7.15;;;6.22;;
81209;SDS011;70685;52.496;13.420;2023-09-07T00:42:14;7.43;;;6.78;;
81209;SDS011;70685;52.496;13.420;2023-09-07T00:44:39;9.88;;;6.65;;
81209;SDS011;70685;52.496;13.420;2023-09-07T00:47:07;6.32;;;5.80;;
81209;SDS011;70685;52.496;13.420;2023-09-07T00:49:33;6.28;;;5.78;;
81209;SDS011;70685;52.496;13.420;2023-09-07T00:51:59;6.97;;;6.22;;
81209;SDS011;70685;52.496;13.420;2023-09-07T00:54:24;7.53;;;6.07;;
81209;SDS011;70685;52.496;13.420;2023-09-07T00:56:50;7.28;;;6.10;;
81209;SDS011;70685;52.496;13.420;2023-09-07T00:59:16;6.65;;;6.10;;
81209;SDS011;70685;52.496;13.420;2023-09-07T01:01:41;8.27;;;6.47;;
81209;SDS011;70685;52.496;13.420;2023-09-07T01:04:15;7.03;;;6.40;;
81209;SDS011;70685;52.496;13.420;2023-09-07T01:06:50;9.55;;;6.15;;
81209;SDS011;70685;52.496;13.420;2023-09-07T01:09:23;7.25;;;6.75;;
81209;SDS011;70685;52.496;13.420;2023-09-07T01:11:51;7.07;;;5.88;;
81209;SDS011;70685;52.496;13.420;2023-09-07T01:14:19;7.05;;;6.45;;
81209;SDS011;70685;52.496;13.420;2023-09-07T01:16:47;6.53;;;6.03;;
81209;SDS011;70685;52.496;13.420;2023-09-07T01:19:16;11.73;;;6.63;;
81209;SDS011;70685;52.496;13.420;2023-09-07T01:21:44;6.77;;;6.27;;
81209;SDS011;70685;52.496;13.420;2023-09-07T01:24:13;6.32;;;5.75;;
81209;SDS011;70685;52.496;13.420;2023-09-07T01:26:43;6.82;;;6.20;;
81209;SDS011;70685;52.496;13.420;2023-09-07T01:29:10;5.75;;;5.45;;
81209;SDS011;70685;52.496;13.420;2023-09-07T01:31:38;11.80;;;6.22;;
81209;SDS011;70685;52.496;13.420;2023-09-07T01:34:05;10.05;;;6.15;;
81209;SDS011;70685;52.496;13.420;2023-09-07T01:36:36;7.07;;;5.97;;
81209;SDS011;70685;52.496;13.420;2023-09-07T01:39:03;8.38;;;6.10;;
81209;SDS011;70685;52.496;13.420;2023-09-07T01:41:30;6.03;;;5.63;;
81209;SDS011;70685;52.496;13.420;2023-09-07T01:43:56;7.03;;;6.10;;
81209;SDS011;70685;52.496;13.420;2023-09-07T01:46:22;6.88;;;5.63;;
81209;SDS011;70685;52.496;13.420;2023-09-07T01:48:50;6.75;;;5.97;;
81209;SDS011;70685;52.496;13.420;2023-09-07T01:51:16;6.57;;;6.03;;
81209;SDS011;70685;52.496;13.420;2023-09-07T01:53:46;8.65;;;6.30;;
81209;SDS011;70685;52.496;13.420;2023-09-07T01:56:13;6.68;;;5.97;;
81209;SDS011;70685;52.496;13.420;2023-09-07T01:58:40;6.03;;;5.47;;
81209;SDS011;70685;52.496;13.420;2023-09-07T02:01:19;6.80;;;6.30;;
81209;SDS011;70685;52.496;13.420;2023-09-07T02:03:55;6.60;;;6.05;;
81209;SDS011;70685;52.496;13.420;2023-09-07T02:06:21;6.78;;;6.15;;
81209;SDS011;70685;52.496;13.420;2023-09-07T02:08:50;6.45;;;6.00;;
81209;SDS011;70685;52.496;13.420;2023-09-07T02:11:20;6.75;;;5.97;;
81209;SDS011;70685;52.496;13.420;2023-09-07T02:13:50;7.03;;;6.40;;
81209;SDS011;70685;52.496;13.420;2023-09-07T02:16:18;6.35;;;5.82;;
81209;SDS011;70685;52.496;13.420;2023-09-07T02:18:48;6.50;;;6.00;;
81209;SDS011;70685;52.496;13.420;2023-09-07T02:21:15;6.97;;;6.30;;
81209;SDS011;70685;52.496;13.420;2023-09-07T02:23:41;6.90;;;6.40;;
81209;SDS011;70685;52.496;13.420;2023-09-07T02:26:09;5.80;;;5.38;;
81209;SDS011;70685;52.496;13.420;2023-09-07T02:28:34;7.22;;;6.53;;
81209;SDS011;70685;52.496;13.420;2023-09-07T02:31:03;6.32;;;5.95;;
81209;SDS011;70685;52.496;13.420;2023-09-07T02:33:30;6.68;;;5.97;;
81209;SDS011;70685;52.496;13.420;2023-09-07T02:35:56;10.00;;;5.95;;
81209;SDS011;70685;52.496;13.420;2023-09-07T02:38:23;6.97;;;6.28;;
81209;SDS011;70685;52.496;13.420;2023-09-07T02:40:48;6.65;;;6.20;;
81209;SDS011;70685;52.496;13.420;2023-09-07T02:43:14;6.57;;;5.97;;
81209;SDS011;70685;52.496;13.420;2023-09-07T02:45:42;6.57;;;5.95;;
81209;SDS011;70685;52.496;13.420;2023-09-07T02:48:10;6.83;;;6.33;;
81209;SDS011;70685;52.496;13.420;2023-09-07T02:50:35;7.95;;;6.13;;
81209;SDS011;70685;52.496;13.420;2023-09-07T02:55:35;6.55;;;5.85;;
81209;SDS011;70685;52.496;13.420;2023-09-07T02:58:02;8.43;;;6.07;;
81209;SDS011;70685;52.496;13.420;2023-09-07T03:00:30;6.60;;;6.00;;
81209;SDS011;70685;52.496;13.420;2023-09-07T03:02:56;7.50;;;6.15;;
81209;SDS011;70685;52.496;13.420;2023-09-07T03:05:26;8.73;;;6.32;;
81209;SDS011;70685;52.496;13.420;2023-09-07T03:07:55;8.00;;;5.70;;
81209;SDS011;70685;52.496;13.420;2023-09-07T03:10:21;6.03;;;5.60;;
81209;SDS011;70685;52.496;13.420;2023-09-07T03:12:46;6.43;;;5.93;;
81209;SDS011;70685;52.496;13.420;2023-09-07T03:15:12;6.15;;;5.75;;
81209;SDS011;70685;52.496;13.420;2023-09-07T03:17:40;6.35;;;5.82;;
81209;SDS011;70685;52.496;13.420;2023-09-07T03:20:08;6.90;;;5.85;;
81209;SDS011;70685;52.496;13.420;2023-09-07T03:22:38;6.13;;;5.60;;
81209;SDS011;70685;52.496;13.420;2023-09-07T03:25:08;7.20;;;5.43;;
81209;SDS011;70685;52.496;13.420;2023-09-07T03:27:35;6.22;;;5.72;;
81209;SDS011;70685;52.496;13.420;2023-09-07T03:30:01;7.00;;;6.38;;
81209;SDS011;70685;52.496;13.420;2023-09-07T03:32:27;6.15;;;5.68;;
81209;SDS011;70685;52.496;13.420;2023-09-07T03:34:58;11.18;;;7.05;;
81209;SDS011;70685;52.496;13.420;2023-09-07T03:37:31;7.07;;;6.50;;
81209;SDS011;70685;52.496;13.420;2023-09-07T03:39:59;6.60;;;6.10;;
81209;SDS011;70685;52.496;13.420;2023-09-07T03:42:30;6.93;;;6.20;;
81209;SDS011;70685;52.496;13.420;2023-09-07T03:45:00;9.52;;;6.95;;
81209;SDS011;70685;52.496;13.420;2023-09-07T03:47:31;6.80;;;6.30;;
81209;SDS011;70685;52.496;13.420;2023-09-07T03:49:59;11.70;;;6.57;;
81209;SDS011;70685;52.496;13.420;2023-09-07T03:52:30;6.90;;;6.50;;
81209;SDS011;70685;52.496;13.420;2023-09-07T03:54:57;7.75;;;6.10;;
81209;SDS011;70685;52.496;13.420;2023-09-07T03:57:23;7.68;;;7.00;;
81209;SDS011;70685;52.496;13.420;2023-09-07T03:59:52;6.88;;;6.38;;
81209;SDS011;70685;52.496;13.420;2023-09-07T04:02:20;7.25;;;6.57;;
81209;SDS011;70685;52.496;13.420;2023-09-07T04:04:52;7.20;;;6.60;;
81209;SDS011;70685;52.496;13.420;2023-09-07T04:07:22;7.28;;;6.72;;
81209;SDS011;70685;52.496;13.420;2023-09-07T04:09:50;8.77;;;6.90;;
81209;SDS011;70685;52.496;13.420;2023-09-07T04:12:20;7.50;;;6.93;;
81209;SDS011;70685;52.496;13.420;2023-09-07T04:14:46;8.48;;;7.20;;
81209;SDS011;70685;52.496;13.420;2023-09-07T04:17:11;7.82;;;7.10;;
81209;SDS011;70685;52.496;13.420;2023-09-07T04:19:39;9.00;;;7.28;;
81209;SDS011;70685;52.496;13.420;2023-09-07T04:22:05;7.63;;;7.03;;
81209;SDS011;70685;52.496;13.420;2023-09-07T04:24:33;12.98;;;6.95;;
81209;SDS011;70685;52.496;13.420;2023-09-07T04:27:01;11.00;;;7.77;;
81209;SDS011;70685;52.496;13.420;2023-09-07T04:29:27;8.50;;;7.10;;
81209;SDS011;70685;52.496;13.420;2023-09-07T04:31:53;7.18;;;6.68;;
81209;SDS011;70685;52.496;13.420;2023-09-07T04:34:20;7.88;;;7.22;;
81209;SDS011;70685;52.496;13.420;2023-09-07T04:36:48;7.22;;;6.72;;
81209;SDS011;70685;52.496;13.420;2023-09-07T04:39:16;6.70;;;6.20;;
81209;SDS011;70685;52.496;13.420;2023-09-07T04:41:43;8.30;;;7.07;;
81209;SDS011;70685;52.496;13.420;2023-09-07T04:44:08;9.13;;;7.00;;
81209;SDS011;70685;52.496;13.420;2023-09-07T04:46:39;7.30;;;6.90;;
81209;SDS011;70685;52.496;13.420;2023-09-07T04:49:05;9.13;;;7.07;;
81209;SDS011;70685;52.496;13.420;2023-09-07T04:51:34;9.50;;;6.15;;
81209;SDS011;70685;52.496;13.420;2023-09-07T04:54:02;6.65;;;6.15;;
81209;SDS011;70685;52.496;13.420;2023-09-07T04:56:28;9.15;;;7.15;;
81209;SDS011;70685;52.496;13.420;2023-09-07T04:58:56;8.30;;;7.03;;
81209;SDS011;70685;52.496;13.420;2023-09-07T05:01:24;8.13;;;6.68;;
81209;SDS011;70685;52.496;13.420;2023-09-07T05:03:50;12.48;;;7.53;;
81209;SDS011;70685;52.496;13.420;2023-09-07T05:06:16;8.02;;;7.22;;
81209;SDS011;70685;52.496;13.420;2023-09-07T05:08:41;7.47;;;6.50;;
81209;SDS011;70685;52.496;13.420;2023-09-07T05:11:07;6.60;;;6.20;;
81209;SDS011;70685;52.496;13.420;2023-09-07T05:13:35;6.93;;;6.43;;
81209;SDS011;70685;52.496;13.420;2023-09-07T05:16:01;7.28;;;6.63;;
81209;SDS011;70685;52.496;13.420;2023-09-07T05:18:29;6.95;;;6.32;;
81209;SDS011;70685;52.496;13.420;2023-09-07T05:20:55;8.82;;;7.05;;
81209;SDS011;70685;52.496;13.420;2023-09-07T05:23:23;8.13;;;6.43;;
81209;SDS011;70685;52.496;13.420;2023-09-07T05:25:51;6.68;;;6.28;;
81209;SDS011;70685;52.496;13.420;2023-09-07T05:28:18;8.05;;;6.57;;
81209;SDS011;70685;52.496;13.420;2023-09-07T05:30:45;9.45;;;7.18;;
81209;SDS011;70685;52.496;13.420;2023-09-07T05:33:13;8.75;;;6.30;;
81209;SDS011;70685;52.496;13.420;2023-09-07T05:35:43;8.00;;;6.78;;
81209;SDS011;70685;52.496;13.420;2023-09-07T05:38:10;9.77;;;6.95;;
81209;SDS011;70685;52.496;13.420;2023-09-07T05:40:39;7.43;;;6.73;;
81209;SDS011;70685;52.496;13.420;2023-09-07T05:43:07;10.90;;;6.93;;
81209;SDS011;70685;52.496;13.420;2023-09-07T05:45:41;9.60;;;7.00;;
81209;SDS011;70685;52.496;13.420;2023-09-07T05:48:07;7.75;;;7.03;;
81209;SDS011;70685;52.496;13.420;2023-09-07T05:50:34;13.63;;;7.22;;
81209;SDS011;70685;52.496;13.420;2023-09-07T05:53:03;6.93;;;6.35;;
81209;SDS011;70685;52.496;13.420;2023-09-07T05:55:29;7.22;;;6.50;;
81209;SDS011;70685;52.496;13.420;2023-09-07T05:57:56;9.13;;;6.63;;
81209;SDS011;70685;52.496;13.420;2023-09-07T06:00:22;6.35;;;5.75;;
81209;SDS011;70685;52.496;13.420;2023-09-07T06:02:50;8.55;;;7.70;;
81209;SDS011;70685;52.496;13.420;2023-09-07T06:05:19;6.88;;;6.25;;
81209;SDS011;70685;52.496;13.420;2023-09-07T06:07:45;7.00;;;6.50;;
81209;SDS011;70685;52.496;13.420;2023-09-07T06:10:12;12.77;;;6.85;;
81209;SDS011;70685;52.496;13.420;2023-09-07T06:12:38;13.98;;;6.72;;
81209;SDS011;70685;52.496;13.420;2023-09-07T06:15:04;7.30;;;6.70;;
81209;SDS011;70685;52.496;13.420;2023-09-07T06:17:30;17.95;;;6.80;;
81209;SDS011;70685;52.496;13.420;2023-09-07T06:19:58;18.50;;;7.15;;
81209;SDS011;70685;52.496;13.420;2023-09-07T06:22:23;7.38;;;6.68;;
81209;SDS011;70685;52.496;13.420;2023-09-07T06:24:49;6.55;;;5.95;;
81209;SDS011;70685;52.496;13.420;2023-09-07T06:27:17;6.33;;;5.73;;
81209;SDS011;70685;52.496;13.420;2023-09-07T06:29:43;6.13;;;5.65;;
81209;SDS011;70685;52.496;13.420;2023-09-07T06:32:08;7.40;;;5.45;;
81209;SDS011;70685;52.496;13.420;2023-09-07T06:34:34;6.13;;;4.97;;
81209;SDS011;70685;52.496;13.420;2023-09-07T06:36:59;6.40;;;5.72;;
81209;SDS011;70685;52.496;13.420;2023-09-07T06:39:28;5.82;;;5.40;;
81209;SDS011;70685;52.496;13.420;2023-09-07T06:41:54;7.18;;;5.40;;
81209;SDS011;70685;52.496;13.420;2023-09-07T06:44:19;6.78;;;5.40;;
81209;SDS011;70685;52.496;13.420;2023-09-07T06:46:45;6.88;;;5.70;;
81209;SDS011;70685;52.496;13.420;2023-09-07T06:49:14;6.00;;;5.50;;
81209;SDS011;70685;52.496;13.420;2023-09-07T06:51:40;9.32;;;5.70;;
81209;SDS011;70685;52.496;13.420;2023-09-07T06:54:05;6.90;;;5.78;;
81209;SDS011;70685;52.496;13.420;2023-09-07T06:56:31;11.20;;;5.43;;
81209;SDS011;70685;52.496;13.420;2023-09-07T06:59:01;7.40;;;5.70;;
81209;SDS011;70685;52.496;13.420;2023-09-07T07:01:26;7.13;;;5.05;;
81209;SDS011;70685;52.496;13.420;2023-09-07T07:03:52;6.18;;;5.22;;
81209;SDS011;70685;52.496;13.420;2023-09-07T07:06:19;6.03;;;5.50;;
81209;SDS011;70685;52.496;13.420;2023-09-07T07:08:47;5.93;;;5.43;;
81209;SDS011;70685;52.496;13.420;2023-09-07T07:13:38;12.57;;;5.63;;
81209;SDS011;70685;52.496;13.420;2023-09-07T07:16:04;5.57;;;4.93;;
81209;SDS011;70685;52.496;13.420;2023-09-07T07:18:32;6.63;;;5.30;;
81209;SDS011;70685;52.496;13.420;2023-09-07T07:20:58;6.30;;;4.90;;
81209;SDS011;70685;52.496;13.420;2023-09-07T07:23:23;9.90;;;5.30;;
81209;SDS011;70685;52.496;13.420;2023-09-07T07:28:17;5.30;;;4.80;;
81209;SDS011;70685;52.496;13.420;2023-09-07T07:30:43;10.20;;;5.72;;
81209;SDS011;70685;52.496;13.420;2023-09-07T07:33:09;6.95;;;5.20;;
81209;SDS011;70685;52.496;13.420;2023-09-07T07:35:39;7.07;;;4.78;;
81209;SDS011;70685;52.496;13.420;2023-09-07T07:38:07;5.00;;;4.60;;
81209;SDS011;70685;52.496;13.420;2023-09-07T07:40:35;5.35;;;4.90;;
81209;SDS011;70685;52.496;13.420;2023-09-07T07:45:28;6.87;;;5.03;;
81209;SDS011;70685;52.496;13.420;2023-09-07T07:47:56;8.48;;;4.20;;
81209;SDS011;70685;52.496;13.420;2023-09-07T07:50:24;6.07;;;4.78;;
81209;SDS011;70685;52.496;13.420;2023-09-07T07:52:49;6.13;;;4.35;;
81209;SDS011;70685;52.496;13.420;2023-09-07T07:55:15;7.55;;;4.43;;
81209;SDS011;70685;52.496;13.420;2023-09-07T07:57:40;7.07;;;4.57;;
81209;SDS011;70685;52.496;13.420;2023-09-07T08:00:09;6.45;;;4.43;;
81209;SDS011;70685;52.496;13.420;2023-09-07T08:02:34;12.48;;;5.00;;
81209;SDS011;70685;52.496;13.420;2023-09-07T08:05:03;6.20;;;4.47;;
81209;SDS011;70685;52.496;13.420;2023-09-07T08:07:29;13.02;;;4.70;;
81209;SDS011;70685;52.496;13.420;2023-09-07T08:09:55;4.45;;;3.90;;
81209;SDS011;70685;52.496;13.420;2023-09-07T08:12:21;8.88;;;4.90;;
81209;SDS011;70685;52.496;13.420;2023-09-07T08:14:48;5.45;;;4.63;;
81209;SDS011;70685;52.496;13.420;2023-09-07T08:17:14;12.20;;;4.55;;
81209;SDS011;70685;52.496;13.420;2023-09-07T08:19:40;5.88;;;5.47;;
81209;SDS011;70685;52.496;13.420;2023-09-07T08:22:06;11.48;;;9.80;;
81209;SDS011;70685;52.496;13.420;2023-09-07T08:24:31;4.63;;;4.22;;
81209;SDS011;70685;52.496;13.420;2023-09-07T08:26:57;6.47;;;4.72;;
81209;SDS011;70685;52.496;13.420;2023-09-07T08:29:25;5.72;;;5.38;;
81209;SDS011;70685;52.496;13.420;2023-09-07T08:31:52;6.90;;;5.97;;
81209;SDS011;70685;52.496;13.420;2023-09-07T08:34:20;8.38;;;5.25;;
81209;SDS011;70685;52.496;13.420;2023-09-07T08:36:49;4.93;;;4.47;;
81209;SDS011;70685;52.496;13.420;2023-09-07T08:39:18;8.23;;;5.03;;
81209;SDS011;70685;52.496;13.420;2023-09-07T08:41:47;4.88;;;4.55;;
81209;SDS011;70685;52.496;13.420;2023-09-07T08:44:15;5.30;;;4.30;;
81209;SDS011;70685;52.496;13.420;2023-09-07T08:46:42;7.15;;;4.18;;
81209;SDS011;70685;52.496;13.420;2023-09-07T08:49:11;8.82;;;4.70;;
81209;SDS011;70685;52.496;13.420;2023-09-07T08:51:44;8.63;;;4.55;;
81209;SDS011;70685;52.496;13.420;2023-09-07T08:54:12;7.35;;;4.50;;
81209;SDS011;70685;52.496;13.420;2023-09-07T08:56:38;6.68;;;3.80;;
81209;SDS011;70685;52.496;13.420;2023-09-07T08:59:04;8.43;;;4.40;;
81209;SDS011;70685;52.496;13.420;2023-09-07T09:01:30;4.30;;;4.00;;
81209;SDS011;70685;52.496;13.420;2023-09-07T09:03:56;5.15;;;3.75;;
81209;SDS011;70685;52.496;13.420;2023-09-07T09:06:25;4.20;;;3.90;;
81209;SDS011;70685;52.496;13.420;2023-09-07T09:11:23;3.85;;;3.50;;
81209;SDS011;70685;52.496;13.420;2023-09-07T09:13:54;7.15;;;3.97;;
81209;SDS011;70685;52.496;13.420;2023-09-07T09:16:25;6.55;;;3.90;;
81209;SDS011;70685;52.496;13.420;2023-09-07T09:18:54;4.72;;;4.32;;
81209;SDS011;70685;52.496;13.420;2023-09-07T09:21:25;4.55;;;4.25;;
81209;SDS011;70685;52.496;13.420;2023-09-07T09:23:56;5.35;;;4.03;;
81209;SDS011;70685;52.496;13.420;2023-09-07T09:26:22;4.20;;;3.90;;
81209;SDS011;70685;52.496;13.420;2023-09-07T09:28:48;6.50;;;4.03;;
81209;SDS011;70685;52.496;13.420;2023-09-07T09:31:17;5.72;;;4.18;;
81209;SDS011;70685;52.496;13.420;2023-09-07T09:33:49;4.72;;;4.32;;
81209;SDS011;70685;52.496;13.420;2023-09-07T09:36:20;4.40;;;4.05;;
81209;SDS011;70685;52.496;13.420;2023-09-07T09:38:51;7.50;;;3.90;;
81209;SDS011;70685;52.496;13.420;2023-09-07T09:41:20;4.65;;;3.70;;
81209;SDS011;70685;52.496;13.420;2023-09-07T09:43:46;4.70;;;4.30;;
81209;SDS011;70685;52.496;13.420;2023-09-07T09:46:14;7.68;;;3.85;;
81209;SDS011;70685;52.496;13.420;2023-09-07T09:48:45;4.35;;;3.97;;
81209;SDS011;70685;52.496;13.420;2023-09-07T09:51:19;4.53;;;4.22;;
81209;SDS011;70685;52.496;13.420;2023-09-07T09:53:48;3.90;;;3.55;;
81209;SDS011;70685;52.496;13.420;2023-09-07T09:56:17;4.70;;;4.40;;
81209;SDS011;70685;52.496;13.420;2023-09-07T09:58:43;4.90;;;4.18;;
81209;SDS011;70685;52.496;13.420;2023-09-07T10:01:11;4.32;;;4.00;;
81209;SDS011;70685;52.496;13.420;2023-09-07T10:03:45;4.68;;;4.15;;
81209;SDS011;70685;52.496;13.420;2023-09-07T10:06:25;5.53;;;3.85;;
81209;SDS011;70685;52.496;13.420;2023-09-07T10:09:03;4.50;;;3.92;;
81209;SDS011;70685;52.496;13.420;2023-09-07T10:11:35;4.10;;;3.75;;
81209;SDS011;70685;52.496;13.420;2023-09-07T10:14:06;5.30;;;3.60;;
81209;SDS011;70685;52.496;13.420;2023-09-07T10:16:45;5.45;;;3.90;;
81209;SDS011;70685;52.496;13.420;2023-09-07T10:19:14;8.25;;;4.32;;
81209;SDS011;70685;52.496;13.420;2023-09-07T10:21:50;9.15;;;4.28;;
81209;SDS011;70685;52.496;13.420;2023-09-07T10:27:05;4.10;;;3.90;;
81209;SDS011;70685;52.496;13.420;2023-09-07T10:29:42;3.95;;;3.42;;
81209;SDS011;70685;52.496;13.420;2023-09-07T10:32:16;4.93;;;4.00;;
81209;SDS011;70685;52.496;13.420;2023-09-07T10:34:42;5.00;;;3.83;;
81209;SDS011;70685;52.496;13.420;2023-09-07T10:37:14;4.50;;;3.92;;
81209;SDS011;70685;52.496;13.420;2023-09-07T10:39:45;5.18;;;4.10;;
81209;SDS011;70685;52.496;13.420;2023-09-07T10:42:23;4.60;;;4.20;;
81209;SDS011;70685;52.496;13.420;2023-09-07T10:44:49;5.15;;;3.63;;
81209;SDS011;70685;52.496;13.420;2023-09-07T10:47:15;3.67;;;3.38;;
81209;SDS011;70685;52.496;13.420;2023-09-07T10:49:41;7.10;;;4.35;;
81209;SDS011;70685;52.496;13.420;2023-09-07T10:52:07;5.53;;;4.18;;
81209;SDS011;70685;52.496;13.420;2023-09-07T10:54:36;3.95;;;3.65;;
81209;SDS011;70685;52.496;13.420;2023-09-07T10:57:08;3.90;;;3.70;;
81209;SDS011;70685;52.496;13.420;2023-09-07T10:59:34;5.20;;;4.05;;
81209;SDS011;70685;52.496;13.420;2023-09-07T11:02:06;4.60;;;3.75;;
81209;SDS011;70685;52.496;13.420;2023-09-07T11:04:32;4.60;;;3.65;;
81209;SDS011;70685;52.496;13.420;2023-09-07T11:06:58;6.82;;;3.60;;
81209;SDS011;70685;52.496;13.420;2023-09-07T11:09:24;4.88;;;3.55;;
81209;SDS011;70685;52.496;13.420;2023-09-07T11:11:52;3.63;;;3.05;;
81209;SDS011;70685;52.496;13.420;2023-09-07T11:14:27;5.22;;;4.20;;
81209;SDS011;70685;52.496;13.420;2023-09-07T11:16:55;5.38;;;3.25;;
81209;SDS011;70685;52.496;13.420;2023-09-07T11:19:21;3.00;;;2.85;;
81209;SDS011;70685;52.496;13.420;2023-09-07T11:21:47;3.25;;;2.95;;
81209;SDS011;70685;52.496;13.420;2023-09-07T11:24:15;3.53;;;3.10;;
81209;SDS011;70685;52.496;13.420;2023-09-07T11:26:43;4.30;;;3.90;;
81209;SDS011;70685;52.496;13.420;2023-09-07T11:29:13;4.68;;;3.20;;
81209;SDS011;70685;52.496;13.420;2023-09-07T11:31:40;3.20;;;2.92;;
81209;SDS011;70685;52.496;13.420;2023-09-07T11:34:13;3.40;;;2.72;;
81209;SDS011;70685;52.496;13.420;2023-09-07T11:36:39;3.80;;;3.20;;
81209;SDS011;70685;52.496;13.420;2023-09-07T11:39:06;3.15;;;2.95;;
81209;SDS011;70685;52.496;13.420;2023-09-07T11:41:37;3.13;;;2.92;;
81209;SDS011;70685;52.496;13.420;2023-09-07T11:44:07;6.15;;;3.50;;
81209;SDS011;70685;52.496;13.420;2023-09-07T11:46:36;3.65;;;3.33;;
81209;SDS011;70685;52.496;13.420;2023-09-07T11:49:02;3.45;;;3.20;;
81209;SDS011;70685;52.496;13.420;2023-09-07T11:51:29;3.38;;;3.17;;
81209;SDS011;70685;52.496;13.420;2023-09-07T11:53:55;4.40;;;3.22;;
81209;SDS011;70685;52.496;13.420;2023-09-07T11:56:21;3.38;;;3.17;;
81209;SDS011;70685;52.496;13.420;2023-09-07T11:58:49;5.05;;;3.28;;
81209;SDS011;70685;52.496;13.420;2023-09-07T12:01:17;6.50;;;3.45;;
81209;SDS011;70685;52.496;13.420;2023-09-07T12:03:43;3.78;;;2.90;;
81209;SDS011;70685;52.496;13.420;2023-09-07T12:06:09;3.78;;;2.90;;
81209;SDS011;70685;52.496;13.420;2023-09-07T12:08:41;3.72;;;2.95;;
81209;SDS011;70685;52.496;13.420;2023-09-07T12:11:22;7.05;;;3.17;;
81209;SDS011;70685;52.496;13.420;2023-09-07T12:13:48;3.40;;;3.20;;
81209;SDS011;70685;52.496;13.420;2023-09-07T12:16:13;3.28;;;3.08;;
81209;SDS011;70685;52.496;13.420;2023-09-07T12:18:42;4.20;;;3.90;;
81209;SDS011;70685;52.496;13.420;2023-09-07T12:21:07;5.45;;;5.05;;
81209;SDS011;70685;52.496;13.420;2023-09-07T12:23:35;4.10;;;3.72;;
81209;SDS011;70685;52.496;13.420;2023-09-07T12:26:01;4.47;;;4.05;;
81209;SDS011;70685;52.496;13.420;2023-09-07T12:28:32;6.57;;;6.00;;
81209;SDS011;70685;52.496;13.420;2023-09-07T12:30:58;6.00;;;4.65;;
81209;SDS011;70685;52.496;13.420;2023-09-07T12:33:23;4.35;;;3.42;;
81209;SDS011;70685;52.496;13.420;2023-09-07T12:35:52;5.18;;;3.40;;
81209;SDS011;70685;52.496;13.420;2023-09-07T12:38:17;3.72;;;3.42;;
81209;SDS011;70685;52.496;13.420;2023-09-07T12:40:47;5.72;;;4.38;;
81209;SDS011;70685;52.496;13.420;2023-09-07T12:43:13;4.50;;;4.20;;
81209;SDS011;70685;52.496;13.420;2023-09-07T12:45:41;3.85;;;3.28;;
81209;SDS011;70685;52.496;13.420;2023-09-07T12:48:07;4.85;;;4.32;;
81209;SDS011;70685;52.496;13.420;2023-09-07T12:50:32;4.38;;;4.05;;
81209;SDS011;70685;52.496;13.420;2023-09-07T12:52:58;3.80;;;3.45;;
81209;SDS011;70685;52.496;13.420;2023-09-07T12:55:23;7.35;;;3.78;;
81209;SDS011;70685;52.496;13.420;2023-09-07T12:57:49;4.18;;;3.40;;
81209;SDS011;70685;52.496;13.420;2023-09-07T13:00:18;4.53;;;4.13;;
81209;SDS011;70685;52.496;13.420;2023-09-07T13:02:48;8.18;;;5.30;;
81209;SDS011;70685;52.496;13.420;2023-09-07T13:05:14;5.35;;;4.18;;
81209;SDS011;70685;52.496;13.420;2023-09-07T13:07:40;3.78;;;3.47;;
81209;SDS011;70685;52.496;13.420;2023-09-07T13:10:08;5.20;;;3.65;;
81209;SDS011;70685;52.496;13.420;2023-09-07T13:12:35;4.05;;;3.70;;
81209;SDS011;70685;52.496;13.420;2023-09-07T13:15:01;3.80;;;3.50;;
81209;SDS011;70685;52.496;13.420;2023-09-07T13:17:27;4.13;;;3.75;;
81209;SDS011;70685;52.496;13.420;2023-09-07T13:19:53;4.80;;;3.40;;
81209;SDS011;70685;52.496;13.420;2023-09-07T13:22:19;3.47;;;3.28;;
81209;SDS011;70685;52.496;13.420;2023-09-07T13:24:46;4.78;;;3.88;;
81209;SDS011;70685;52.496;13.420;2023-09-07T13:27:12;3.85;;;3.55;;
81209;SDS011;70685;52.496;13.420;2023-09-07T13:32:08;5.60;;;4.13;;
81209;SDS011;70685;52.496;13.420;2023-09-07T13:34:37;3.83;;;3.63;;
81209;SDS011;70685;52.496;13.420;2023-09-07T13:37:04;7.63;;;4.50;;
81209;SDS011;70685;52.496;13.420;2023-09-07T13:39:30;4.32;;;3.92;;
81209;SDS011;70685;52.496;13.420;2023-09-07T13:41:58;4.93;;;4.10;;
81209;SDS011;70685;52.496;13.420;2023-09-07T13:44:24;3.45;;;3.13;;
81209;SDS011;70685;52.496;13.420;2023-09-07T13:46:52;7.57;;;3.53;;
81209;SDS011;70685;52.496;13.420;2023-09-07T13:49:20;5.07;;;4.78;;
81209;SDS011;70685;52.496;13.420;2023-09-07T13:51:45;4.72;;;4.43;;
81209;SDS011;70685;52.496;13.420;2023-09-07T13:54:11;6.30;;;3.80;;
81209;SDS011;70685;52.496;13.420;2023-09-07T13:56:41;5.18;;;4.43;;
81209;SDS011;70685;52.496;13.420;2023-09-07T13:59:09;5.38;;;3.03;;
81209;SDS011;70685;52.496;13.420;2023-09-07T14:01:37;3.55;;;3.20;;
81209;SDS011;70685;52.496;13.420;2023-09-07T14:04:03;4.15;;;3.75;;
81209;SDS011;70685;52.496;13.420;2023-09-07T14:06:32;4.20;;;3.55;;
81209;SDS011;70685;52.496;13.420;2023-09-07T14:08:57;4.80;;;4.32;;
81209;SDS011;70685;52.496;13.420;2023-09-07T14:11:28;6.72;;;4.90;;
81209;SDS011;70685;52.496;13.420;2023-09-07T14:13:56;5.22;;;4.82;;
81209;SDS011;70685;52.496;13.420;2023-09-07T14:16:24;6.38;;;5.07;;
81209;SDS011;70685;52.496;13.420;2023-09-07T14:18:52;3.88;;;3.50;;
81209;SDS011;70685;52.496;13.420;2023-09-07T14:21:20;5.15;;;4.50;;
81209;SDS011;70685;52.496;13.420;2023-09-07T14:23:46;4.47;;;4.07;;
81209;SDS011;70685;52.496;13.420;2023-09-07T14:26:14;5.68;;;5.20;;
81209;SDS011;70685;52.496;13.420;2023-09-07T14:28:42;4.85;;;4.40;;
81209;SDS011;70685;52.496;13.420;2023-09-07T14:31:10;7.05;;;4.85;;
81209;SDS011;70685;52.496;13.420;2023-09-07T14:33:37;4.82;;;4.25;;
81209;SDS011;70685;52.496;13.420;2023-09-07T14:36:06;6.10;;;4.50;;
81209;SDS011;70685;52.496;13.420;2023-09-07T14:38:34;5.25;;;4.75;;
81209;SDS011;70685;52.496;13.420;2023-09-07T14:41:06;4.60;;;4.28;;
81209;SDS011;70685;52.496;13.420;2023-09-07T14:43:44;5.35;;;4.40;;
81209;SDS011;70685;52.496;13.420;2023-09-07T14:46:10;5.25;;;4.85;;
81209;SDS011;70685;52.496;13.420;2023-09-07T14:51:06;5.03;;;4.32;;
81209;SDS011;70685;52.496;13.420;2023-09-07T14:53:32;5.72;;;4.53;;
81209;SDS011;70685;52.496;13.420;2023-09-07T14:55:58;4.85;;;4.45;;